createdAt,value
2018-12-16T00:00:53.627Z,16.80
2018-12-16T00:03:21.158Z,17.97
2018-12-16T00:05:48.699Z,18.70
2018-12-16T00:08:16.282Z,19.17
2018-12-16T00:10:43.877Z,17.93
2018-12-16T00:13:11.694Z,18.47
2018-12-16T00:15:39.496Z,18.57
2018-12-16T00:18:07.218Z,17.67
2018-12-16T00:20:35.018Z,18.10
2018-12-16T00:23:02.741Z,18.17
2018-12-16T00:25:30.310Z,17.80
2018-12-16T00:27:57.892Z,19.70
2018-12-16T00:30:26.355Z,18.37
2018-12-16T00:32:54.184Z,17.90
2018-12-16T00:35:22.314Z,18.90
2018-12-16T00:37:49.850Z,17.97
2018-12-16T00:40:17.777Z,19.30
2018-12-16T00:42:45.711Z,18.60
2018-12-16T00:45:13.431Z,18.00
2018-12-16T00:47:41.005Z,19.10
2018-12-16T00:50:08.714Z,17.77
2018-12-16T00:55:11.456Z,18.57
2018-12-16T00:57:39.067Z,17.60
2018-12-16T01:00:11.961Z,17.73
2018-12-16T01:02:42.109Z,18.77
2018-12-16T01:05:10.118Z,19.53
2018-12-16T01:07:37.809Z,18.87
2018-12-16T01:10:05.401Z,18.20
2018-12-16T01:12:33.070Z,18.47
2018-12-16T01:15:00.627Z,20.27
2018-12-16T01:17:28.225Z,18.77
2018-12-16T01:19:55.809Z,19.43
2018-12-16T01:22:23.992Z,19.20
2018-12-16T01:24:51.599Z,19.10
2018-12-16T01:27:19.220Z,18.70
2018-12-16T01:29:47.106Z,19.07
2018-12-16T01:32:14.903Z,19.63
2018-12-16T01:34:42.462Z,19.03
2018-12-16T01:37:10.013Z,18.73
2018-12-16T01:39:37.566Z,19.43
2018-12-16T01:42:05.134Z,19.37
2018-12-16T01:44:32.884Z,20.80
2018-12-16T01:47:00.710Z,19.70
2018-12-16T01:49:28.588Z,19.43
2018-12-16T01:51:56.449Z,18.63
2018-12-16T01:54:24.366Z,18.43
2018-12-16T01:56:52.280Z,18.87
2018-12-16T01:59:20.154Z,18.37
2018-12-16T02:01:53.691Z,19.10
2018-12-16T02:04:21.538Z,18.40
2018-12-16T02:06:49.099Z,19.13
2018-12-16T02:09:16.705Z,17.73
2018-12-16T02:11:44.246Z,17.17
2018-12-16T02:14:11.846Z,18.33
2018-12-16T02:16:39.367Z,17.77
2018-12-16T02:19:07.256Z,18.60
2018-12-16T02:21:34.893Z,18.73
2018-12-16T02:24:02.543Z,17.80
2018-12-16T02:26:30.210Z,18.17
2018-12-16T02:28:57.769Z,19.27
2018-12-16T02:31:25.633Z,17.40
2018-12-16T02:33:53.844Z,18.47
2018-12-16T02:36:21.382Z,17.33
2018-12-16T02:38:48.924Z,16.90
2018-12-16T02:41:16.634Z,18.37
2018-12-16T02:43:44.473Z,17.43
2018-12-16T02:46:12.317Z,18.13
2018-12-16T02:48:40.079Z,18.03
2018-12-16T02:51:07.847Z,17.50
2018-12-16T02:53:35.487Z,17.33
2018-12-16T02:56:03.059Z,18.03
2018-12-16T02:58:30.619Z,18.37
2018-12-16T03:00:58.243Z,18.53
2018-12-16T03:03:25.975Z,17.90
2018-12-16T03:05:53.847Z,17.57
2018-12-16T03:08:21.527Z,18.23
2018-12-16T03:10:49.394Z,18.57
2018-12-16T03:13:17.261Z,18.73
2018-12-16T03:15:45.263Z,19.00
2018-12-16T03:18:12.851Z,17.53
2018-12-16T03:20:40.400Z,17.80
2018-12-16T03:23:12.386Z,18.03
2018-12-16T03:25:37.571Z,17.50
2018-12-16T03:28:05.114Z,18.53
2018-12-16T03:30:32.665Z,18.00
2018-12-16T03:33:00.356Z,18.97
2018-12-16T03:35:27.982Z,18.37
2018-12-16T03:37:55.744Z,18.87
2018-12-16T03:40:23.566Z,19.33
2018-12-16T03:42:51.423Z,19.00
2018-12-16T03:45:19.207Z,17.97
2018-12-16T03:47:47.132Z,19.50
2018-12-16T03:50:14.707Z,18.70
2018-12-16T03:52:42.278Z,17.63
2018-12-16T03:55:09.847Z,18.27
2018-12-16T03:57:37.394Z,17.90
2018-12-16T04:00:05.621Z,17.63
2018-12-16T04:02:33.508Z,19.00
2018-12-16T04:05:01.349Z,17.87
2018-12-16T04:07:29.047Z,18.87
2018-12-16T04:09:56.745Z,18.87
2018-12-16T04:12:24.653Z,18.97
2018-12-16T04:14:52.206Z,18.53
2018-12-16T04:17:19.816Z,18.43
2018-12-16T04:19:47.354Z,18.57
2018-12-16T04:22:14.939Z,19.23
2018-12-16T04:24:42.594Z,19.40
2018-12-16T04:27:10.434Z,18.73
2018-12-16T04:29:38.344Z,19.00
2018-12-16T04:32:06.209Z,19.30
2018-12-16T04:34:34.062Z,18.03
2018-12-16T04:37:01.611Z,19.60
2018-12-16T04:39:29.191Z,19.47
2018-12-16T04:41:56.742Z,19.50
2018-12-16T04:44:24.291Z,19.00
2018-12-16T04:46:52.179Z,19.57
2018-12-16T04:49:20.041Z,19.63
2018-12-16T04:51:47.959Z,19.43
2018-12-16T04:54:15.826Z,19.40
2018-12-16T04:56:43.642Z,19.80
2018-12-16T04:59:11.181Z,20.23
2018-12-16T05:01:38.746Z,19.83
2018-12-16T05:04:06.291Z,21.13
2018-12-16T05:06:33.885Z,19.83
2018-12-16T05:09:01.692Z,20.03
2018-12-16T05:11:29.460Z,20.70
2018-12-16T05:13:57.209Z,21.13
2018-12-16T05:16:25.038Z,19.33
2018-12-16T05:18:52.618Z,19.60
2018-12-16T05:21:20.213Z,18.93
2018-12-16T05:23:47.816Z,20.33
2018-12-16T05:26:15.370Z,19.83
2018-12-16T05:28:43.250Z,19.70
2018-12-16T05:31:10.868Z,20.27
2018-12-16T05:33:38.721Z,20.00
2018-12-16T05:36:06.442Z,20.70
2018-12-16T05:38:34.107Z,21.07
2018-12-16T05:41:01.610Z,19.67
2018-12-16T05:43:29.176Z,20.87
2018-12-16T05:45:56.771Z,20.23
2018-12-16T05:48:24.713Z,21.33
2018-12-16T05:50:52.569Z,20.60
2018-12-16T05:53:20.352Z,20.80
2018-12-16T05:55:48.201Z,21.47
2018-12-16T05:58:15.965Z,21.20
2018-12-16T06:00:43.529Z,22.37
2018-12-16T06:03:11.122Z,21.37
2018-12-16T06:05:38.710Z,21.03
2018-12-16T06:08:06.303Z,20.70
2018-12-16T06:10:34.278Z,21.27
2018-12-16T06:13:02.182Z,21.07
2018-12-16T06:15:29.873Z,21.57
2018-12-16T06:17:57.769Z,19.87
2018-12-16T06:20:25.611Z,20.90
2018-12-16T06:22:53.177Z,19.47
2018-12-16T06:25:20.714Z,21.03
2018-12-16T06:27:48.254Z,19.93
2018-12-16T06:30:16.362Z,21.27
2018-12-16T06:32:43.993Z,21.13
2018-12-16T06:35:11.874Z,20.20
2018-12-16T06:37:39.545Z,20.40
2018-12-16T06:40:07.330Z,17.63
2018-12-16T06:42:35.078Z,18.90
2018-12-16T06:45:02.771Z,20.33
2018-12-16T06:47:30.292Z,19.07
2018-12-16T06:49:57.925Z,20.37
2018-12-16T06:52:25.470Z,19.93
2018-12-16T06:54:53.076Z,19.20
2018-12-16T06:57:21.061Z,20.37
2018-12-16T06:59:48.959Z,19.13
2018-12-16T07:02:16.777Z,19.83
2018-12-16T07:04:44.627Z,19.83
2018-12-16T07:07:12.454Z,20.03
2018-12-16T07:09:40.018Z,18.80
2018-12-16T07:12:07.539Z,19.87
2018-12-16T07:14:35.138Z,20.43
2018-12-16T07:17:02.704Z,20.40
2018-12-16T07:19:30.553Z,19.40
2018-12-16T07:21:58.698Z,19.93
2018-12-16T07:24:26.716Z,21.10
2018-12-16T07:26:54.685Z,20.67
2018-12-16T07:29:22.477Z,21.10
2018-12-16T07:31:50.226Z,21.30
2018-12-16T07:34:18.057Z,20.43
2018-12-16T07:36:45.757Z,21.67
2018-12-16T07:39:13.578Z,22.30
2018-12-16T07:41:41.128Z,19.23
2018-12-16T07:44:08.698Z,19.13
2018-12-16T07:46:36.518Z,19.10
2018-12-16T07:49:04.475Z,20.10
2018-12-16T07:51:32.449Z,20.40
2018-12-16T07:54:00.322Z,20.73
2018-12-16T07:56:28.131Z,19.80
2018-12-16T07:58:55.940Z,20.37
2018-12-16T08:01:23.625Z,20.80
2018-12-16T08:03:51.194Z,20.10
2018-12-16T08:06:18.906Z,19.53
2018-12-16T08:08:46.609Z,21.63
2018-12-16T08:11:14.238Z,21.07
2018-12-16T08:13:42.042Z,18.97
2018-12-16T08:16:09.795Z,18.97
2018-12-16T08:18:37.518Z,19.40
2018-12-16T08:21:05.268Z,19.30
2018-12-16T08:23:32.893Z,19.10
2018-12-16T08:26:00.425Z,18.87
2018-12-16T08:28:28.002Z,18.67
2018-12-16T08:30:55.561Z,18.50
2018-12-16T08:33:23.276Z,19.87
2018-12-16T08:35:51.074Z,18.83
2018-12-16T08:38:18.745Z,18.70
2018-12-16T08:40:46.382Z,18.20
2018-12-16T08:43:13.917Z,18.60
2018-12-16T08:45:41.463Z,19.13
2018-12-16T08:48:09.015Z,18.03
2018-12-16T08:50:36.662Z,17.90
2018-12-16T08:53:04.651Z,17.40
2018-12-16T08:55:32.437Z,16.37
2018-12-16T08:58:00.084Z,19.17
2018-12-16T09:00:27.745Z,17.00
2018-12-16T09:02:55.482Z,16.57
2018-12-16T09:05:23.058Z,16.73
2018-12-16T09:07:50.593Z,16.77
2018-12-16T09:10:18.154Z,17.67
2018-12-16T09:12:45.718Z,18.60
2018-12-16T09:15:13.381Z,16.13
2018-12-16T09:17:41.062Z,17.63
2018-12-16T09:20:08.776Z,17.37
2018-12-16T09:22:36.522Z,15.57
2018-12-16T09:25:04.256Z,15.40
2018-12-16T09:27:31.794Z,18.20
2018-12-16T09:29:59.357Z,15.80
2018-12-16T09:32:26.909Z,15.87
2018-12-16T09:34:54.739Z,12.83
2018-12-16T09:37:22.624Z,13.47
2018-12-16T09:39:50.329Z,16.43
2018-12-16T09:42:18.089Z,16.60
2018-12-16T09:44:46.155Z,14.90
2018-12-16T09:47:13.717Z,19.03
2018-12-16T09:49:41.390Z,15.63
2018-12-16T09:52:08.964Z,15.07
2018-12-16T09:54:36.607Z,15.43
2018-12-16T09:57:04.499Z,16.63
2018-12-16T09:59:33.100Z,15.23
2018-12-16T10:02:01.458Z,16.33
2018-12-16T10:04:29.329Z,14.77
2018-12-16T10:06:57.163Z,13.97
2018-12-16T10:09:24.995Z,16.93
2018-12-16T10:11:52.626Z,15.73
2018-12-16T10:14:21.959Z,14.13
2018-12-16T10:16:49.520Z,13.97
2018-12-16T10:19:17.091Z,16.57
2018-12-16T10:21:44.762Z,13.50
2018-12-16T10:24:12.414Z,16.53
2018-12-16T10:26:40.576Z,14.90
2018-12-16T10:29:08.221Z,13.23
2018-12-16T10:31:36.025Z,15.60
2018-12-16T10:34:03.872Z,16.20
2018-12-16T10:36:31.447Z,17.03
2018-12-16T10:38:58.993Z,14.70
2018-12-16T10:41:26.575Z,17.03
2018-12-16T10:43:54.437Z,14.83
2018-12-16T10:46:22.307Z,14.67
2018-12-16T10:48:50.159Z,14.63
2018-12-16T10:51:18.010Z,19.13
2018-12-16T10:53:45.577Z,15.43
2018-12-16T10:56:13.217Z,15.33
2018-12-16T10:58:40.850Z,16.73
2018-12-16T11:01:14.071Z,19.40
2018-12-16T11:03:41.824Z,14.60
2018-12-16T11:06:10.692Z,15.83
2018-12-16T11:08:38.928Z,15.17
2018-12-16T11:11:06.814Z,15.03
2018-12-16T11:13:34.571Z,14.10
2018-12-16T11:16:02.482Z,14.60
2018-12-16T11:18:30.322Z,14.80
2018-12-16T11:20:58.160Z,14.77
2018-12-16T11:23:26.402Z,14.70
2018-12-16T11:25:55.258Z,17.70
2018-12-16T11:28:22.923Z,14.87
2018-12-16T11:30:50.622Z,14.97
2018-12-16T11:33:18.206Z,14.37
2018-12-16T11:35:45.934Z,15.00
2018-12-16T11:38:13.574Z,17.80
2018-12-16T11:40:41.418Z,15.37
2018-12-16T11:43:08.991Z,14.13
2018-12-16T11:45:37.035Z,15.63
2018-12-16T11:48:05.074Z,17.40
2018-12-16T11:50:32.910Z,15.67
2018-12-16T11:53:00.794Z,16.70
2018-12-16T11:55:28.917Z,15.83
2018-12-16T11:57:56.619Z,18.10
2018-12-16T12:00:24.258Z,15.20
2018-12-16T12:02:51.884Z,16.63
2018-12-16T12:05:19.594Z,15.70
2018-12-16T12:07:47.163Z,17.13
2018-12-16T12:10:14.806Z,17.13
2018-12-16T12:12:42.397Z,16.80
2018-12-16T12:15:10.175Z,17.47
2018-12-16T12:17:37.954Z,18.93
2018-12-16T12:20:05.965Z,19.20
2018-12-16T12:22:33.796Z,16.77
2018-12-16T12:25:01.711Z,16.30
2018-12-16T12:27:29.686Z,17.33
2018-12-16T12:29:57.359Z,17.23
2018-12-16T12:32:25.049Z,16.33
2018-12-16T12:34:52.657Z,17.87
2018-12-16T12:37:20.185Z,16.20
2018-12-16T12:39:47.833Z,16.10
2018-12-16T12:42:15.646Z,15.93
2018-12-16T12:44:43.386Z,16.57
2018-12-16T12:47:11.473Z,16.77
2018-12-16T12:49:44.925Z,16.80
2018-12-16T12:52:08.959Z,16.83
2018-12-16T12:54:36.624Z,16.93
2018-12-16T12:57:04.569Z,16.20
2018-12-16T12:59:32.906Z,16.27
2018-12-16T13:02:01.486Z,15.83
2018-12-16T13:04:29.267Z,16.73
2018-12-16T13:06:57.427Z,15.17
2018-12-16T13:09:25.555Z,17.63
2018-12-16T13:11:53.310Z,16.93
2018-12-16T13:14:21.006Z,17.50
2018-12-16T13:16:48.952Z,17.37
2018-12-16T13:19:16.887Z,17.77
2018-12-16T13:21:44.549Z,16.27
2018-12-16T13:24:12.167Z,17.53
2018-12-16T13:26:39.789Z,17.23
2018-12-16T13:29:07.378Z,17.40
2018-12-16T13:31:34.966Z,17.10
2018-12-16T13:34:02.790Z,17.13
2018-12-16T13:36:30.818Z,17.83
2018-12-16T13:38:58.738Z,17.00
2018-12-16T13:41:26.375Z,18.27
2018-12-16T13:43:54.545Z,17.77
2018-12-16T13:46:22.170Z,18.80
2018-12-16T13:48:49.815Z,18.50
2018-12-16T13:51:17.723Z,18.57
2018-12-16T13:53:45.301Z,18.67
2018-12-16T13:56:12.856Z,17.93
2018-12-16T13:58:40.529Z,19.33
2018-12-16T14:01:08.277Z,18.70
2018-12-16T14:03:35.911Z,18.10
2018-12-16T14:06:03.647Z,17.93
2018-12-16T14:08:31.501Z,19.33
2018-12-16T14:10:59.374Z,19.77
2018-12-16T14:13:27.201Z,19.80
2018-12-16T14:15:54.812Z,19.63
2018-12-16T14:18:22.381Z,18.90
2018-12-16T14:20:49.958Z,19.10
2018-12-16T14:23:17.714Z,19.97
2018-12-16T14:25:48.110Z,18.90
2018-12-16T14:28:15.030Z,19.63
2018-12-16T14:30:42.625Z,19.20
2018-12-16T14:33:10.386Z,19.03
2018-12-16T14:35:38.191Z,18.10
2018-12-16T14:38:06.310Z,16.60
2018-12-16T14:40:34.031Z,17.23
2018-12-16T14:43:01.754Z,17.60
2018-12-16T14:45:29.346Z,18.50
2018-12-16T14:47:56.910Z,19.67
2018-12-16T14:50:26.566Z,20.43
2018-12-16T14:52:54.161Z,20.07
2018-12-16T14:55:21.914Z,21.07
2018-12-16T14:57:49.622Z,18.00
2018-12-16T15:00:17.236Z,19.23
2018-12-16T15:02:44.781Z,19.00
2018-12-16T15:05:13.106Z,16.83
2018-12-16T15:07:41.301Z,16.13
2018-12-16T15:10:09.963Z,15.73
2018-12-16T15:12:37.881Z,16.93
2018-12-16T15:15:06.559Z,17.83
2018-12-16T15:17:34.645Z,16.70
2018-12-16T15:20:04.271Z,18.03
2018-12-16T15:22:31.854Z,17.67
2018-12-16T15:24:59.574Z,17.10
2018-12-16T15:27:27.504Z,17.33
2018-12-16T15:29:55.241Z,17.97
2018-12-16T15:32:22.850Z,18.23
2018-12-16T15:34:50.546Z,17.73
2018-12-16T15:37:18.094Z,17.60
2018-12-16T15:39:45.625Z,17.53
2018-12-16T15:42:13.237Z,18.00
2018-12-16T15:44:40.811Z,18.93
2018-12-16T15:47:08.438Z,18.03
2018-12-16T15:49:36.426Z,19.93
2018-12-16T15:57:05.307Z,20.97
2018-12-16T15:59:33.209Z,21.53
2018-12-16T16:02:00.924Z,22.70
2018-12-16T16:04:28.791Z,21.83
2018-12-16T16:06:56.574Z,23.03
2018-12-16T16:09:24.243Z,23.17
2018-12-16T16:11:51.906Z,23.07
2018-12-16T16:14:20.698Z,23.63
2018-12-16T16:16:48.333Z,23.13
2018-12-16T16:19:15.936Z,24.30
2018-12-16T16:21:43.542Z,24.43
2018-12-16T16:24:11.334Z,22.97
2018-12-16T16:26:39.178Z,23.13
2018-12-16T16:29:06.959Z,24.33
2018-12-16T16:31:34.962Z,23.93
2018-12-16T16:34:02.561Z,24.70
2018-12-16T16:36:30.205Z,24.00
2018-12-16T16:38:57.804Z,26.10
2018-12-16T16:41:25.615Z,23.10
2018-12-16T16:43:53.706Z,21.73
2018-12-16T16:46:21.615Z,22.90
2018-12-16T16:48:49.733Z,22.83
2018-12-16T16:51:17.607Z,21.80
2018-12-16T16:53:45.423Z,22.67
2018-12-16T16:56:13.054Z,21.30
2018-12-16T16:58:40.654Z,21.50
2018-12-16T17:01:08.255Z,21.43
2018-12-16T17:03:36.025Z,21.80
2018-12-16T17:06:03.782Z,22.10
2018-12-16T17:08:31.703Z,20.03
2018-12-16T17:10:59.559Z,21.47
2018-12-16T17:13:27.382Z,19.83
2018-12-16T17:15:55.222Z,20.97
2018-12-16T17:18:23.103Z,20.47
2018-12-16T17:20:50.760Z,20.27
2018-12-16T17:23:18.364Z,18.83
2018-12-16T17:25:53.500Z,22.07
2018-12-16T17:28:21.119Z,20.50
2018-12-16T17:30:48.710Z,21.57
2018-12-16T17:33:16.330Z,21.60
2018-12-16T17:35:43.935Z,22.00
2018-12-16T17:38:11.543Z,23.77
2018-12-16T17:40:39.380Z,21.87
2018-12-16T17:43:07.419Z,22.30
2018-12-16T17:46:26.374Z,21.50
2018-12-16T17:48:54.008Z,22.07
2018-12-16T17:51:21.819Z,22.80
2018-12-16T17:54:13.793Z,20.93
2018-12-16T17:56:41.577Z,19.27
2018-12-16T17:59:17.976Z,19.43
2018-12-16T18:10:13.975Z,16.90
2018-12-16T18:12:41.876Z,17.77
2018-12-16T18:15:09.718Z,18.50
2018-12-16T18:17:37.609Z,19.50
2018-12-16T18:20:06.381Z,20.63
2018-12-16T18:22:34.165Z,19.70
2018-12-16T18:25:02.047Z,19.73
2018-12-16T18:27:29.744Z,20.37
2018-12-16T18:29:57.406Z,22.53
2018-12-16T18:32:25.062Z,20.93
2018-12-16T18:34:52.755Z,22.33
2018-12-16T18:37:20.762Z,22.77
2018-12-16T18:39:48.687Z,21.73
2018-12-16T18:42:16.494Z,21.70
2018-12-16T18:44:44.201Z,22.50
2018-12-16T18:47:11.941Z,20.13
2018-12-16T18:49:39.580Z,23.47
2018-12-16T18:52:07.269Z,22.40
2018-12-16T18:54:34.891Z,20.97
2018-12-16T18:57:07.139Z,22.20
2018-12-16T18:59:32.194Z,19.63
2018-12-16T19:01:59.799Z,19.90
2018-12-16T19:04:27.401Z,21.07
2018-12-16T19:06:55.096Z,18.47
2018-12-16T19:09:22.837Z,19.00
2018-12-16T19:11:50.737Z,18.83
2018-12-16T19:14:18.589Z,19.63
2018-12-16T19:16:54.119Z,19.13
2018-12-16T19:19:44.273Z,18.27
2018-12-16T19:22:11.890Z,18.60
2018-12-16T19:24:39.666Z,16.70
2018-12-16T19:27:09.156Z,16.40
2018-12-16T19:29:36.801Z,15.47
2018-12-16T19:32:04.448Z,17.00
2018-12-16T19:34:32.177Z,17.13
2018-12-16T19:37:00.014Z,17.50
2018-12-16T19:39:27.914Z,17.90
2018-12-16T19:42:02.793Z,16.83
2018-12-16T19:44:30.627Z,16.80
2018-12-16T19:46:59.113Z,17.50
2018-12-16T19:49:27.147Z,17.27
2018-12-16T19:51:54.915Z,20.57
2018-12-16T19:54:22.830Z,19.37
2018-12-16T19:56:50.646Z,19.30
2018-12-16T19:59:18.577Z,17.43
2018-12-16T20:01:46.202Z,16.90
2018-12-16T20:04:19.096Z,18.10
2018-12-16T20:06:50.008Z,16.13
2018-12-16T20:09:17.717Z,17.40
2018-12-16T20:11:45.414Z,17.13
2018-12-16T20:14:13.075Z,17.57
2018-12-16T20:16:40.650Z,18.53
2018-12-16T20:19:08.246Z,18.20
2018-12-16T20:21:35.959Z,18.83
2018-12-16T20:24:03.901Z,20.03
2018-12-16T20:26:31.642Z,21.03
2018-12-16T20:28:59.402Z,21.77
2018-12-16T20:31:27.363Z,21.30
2018-12-16T20:33:56.014Z,20.53
2018-12-16T20:36:23.682Z,23.03
2018-12-16T20:38:51.465Z,22.83
2018-12-16T20:41:19.126Z,23.50
2018-12-16T20:43:47.175Z,25.30
2018-12-16T20:46:15.451Z,24.77
2018-12-16T20:48:43.055Z,24.00
2018-12-16T20:51:10.605Z,24.70
2018-12-16T20:53:38.221Z,26.20
2018-12-16T20:56:05.908Z,28.47
2018-12-16T20:58:33.668Z,27.13
2018-12-16T21:01:01.346Z,28.63
2018-12-16T21:03:29.299Z,26.63
2018-12-16T21:05:57.154Z,27.33
2018-12-16T21:08:24.862Z,28.83
2018-12-16T21:10:52.400Z,28.70
2018-12-16T21:13:38.491Z,27.00
2018-12-16T21:16:14.634Z,25.87
2018-12-16T21:18:42.390Z,29.20
2018-12-16T21:21:09.986Z,28.27
2018-12-16T21:23:37.596Z,28.30
2018-12-16T21:26:05.359Z,28.80
2018-12-16T21:28:33.053Z,29.73
2018-12-16T21:31:01.038Z,28.33
2018-12-16T21:33:29.354Z,27.73
2018-12-16T21:36:04.581Z,28.20
2018-12-16T21:38:33.336Z,26.33
2018-12-16T21:41:00.915Z,27.67
2018-12-16T21:43:28.663Z,25.70
2018-12-16T21:45:56.487Z,26.10
2018-12-16T21:48:24.149Z,25.70
2018-12-16T21:50:51.817Z,25.60
2018-12-16T21:53:19.710Z,27.13
2018-12-16T21:55:47.556Z,26.10
2018-12-16T21:58:15.161Z,25.77
2018-12-16T22:00:42.772Z,28.17
2018-12-16T22:03:10.402Z,27.37
2018-12-16T22:05:38.271Z,25.33
2018-12-16T22:08:13.491Z,28.23
2018-12-16T22:10:44.705Z,24.93
2018-12-16T22:13:12.395Z,24.03
2018-12-16T22:15:40.269Z,24.07
2018-12-16T22:18:15.999Z,23.40
2018-12-16T22:20:58.125Z,24.57
2018-12-16T22:28:35.401Z,23.20
2018-12-16T22:31:11.119Z,23.07
2018-12-16T22:33:46.286Z,21.87
2018-12-16T22:36:21.832Z,23.37
2018-12-16T22:38:57.098Z,22.70
2018-12-16T22:41:32.289Z,22.33
2018-12-16T22:44:07.376Z,20.03
2018-12-16T22:46:43.215Z,21.87
2018-12-16T22:49:10.977Z,22.30
2018-12-16T22:51:46.810Z,23.10
2018-12-16T22:54:21.542Z,21.53
2018-12-16T22:56:56.318Z,21.70
2018-12-16T22:59:31.619Z,21.67
2018-12-16T23:02:07.448Z,21.70
2018-12-16T23:04:42.422Z,23.40
2018-12-16T23:07:18.516Z,23.03
2018-12-16T23:09:53.785Z,22.97
2018-12-16T23:12:31.239Z,23.73
2018-12-16T23:15:06.720Z,24.83
2018-12-16T23:17:41.550Z,22.73
2018-12-16T23:20:19.186Z,24.13
2018-12-16T23:22:55.031Z,23.97
2018-12-16T23:25:22.650Z,22.90
2018-12-16T23:27:54.192Z,23.70
2018-12-16T23:30:20.202Z,22.30
2018-12-16T23:32:47.788Z,21.90
2018-12-16T23:35:15.386Z,22.47
2018-12-16T23:37:42.995Z,20.63
2018-12-16T23:40:10.650Z,20.57
2018-12-16T23:42:38.395Z,21.20
2018-12-16T23:45:07.359Z,21.43
2018-12-16T23:47:35.289Z,23.60
2018-12-16T23:50:03.380Z,23.47
2018-12-16T23:52:31.307Z,22.93
2018-12-16T23:54:59.193Z,22.73
2018-12-16T23:57:27.094Z,23.50
2018-12-16T23:59:55.243Z,22.57
